createdAt,value
2023-04-01T00:00:11.710Z,62.26
2023-04-01T00:02:41.720Z,62.67
2023-04-01T00:05:08.758Z,62.53
2023-04-01T00:07:35.377Z,62.64
2023-04-01T00:10:01.980Z,62.95
2023-04-01T00:12:31.459Z,63.17
2023-04-01T00:14:58.104Z,63.41
2023-04-01T00:17:24.721Z,63.37
2023-04-01T00:19:51.357Z,63.41
2023-04-01T00:22:21.222Z,63.26
2023-04-01T00:24:47.791Z,63.37
2023-04-01T00:27:14.724Z,63.19
2023-04-01T00:29:44.864Z,63.34
2023-04-01T00:32:11.771Z,63.28
2023-04-01T00:34:41.022Z,63.08
2023-04-01T00:37:10.668Z,63.06
2023-04-01T00:39:37.285Z,63.47
2023-04-01T00:42:04.040Z,64.12
2023-04-01T00:44:32.010Z,64.22
2023-04-01T00:46:58.725Z,64.56
2023-04-01T00:49:34.191Z,64.64
2023-04-01T00:52:04.176Z,64.78
2023-04-01T00:54:31.573Z,64.99
2023-04-01T00:57:00.071Z,65.33
2023-04-01T00:59:31.370Z,65.90
2023-04-01T01:01:58.162Z,66.34
2023-04-01T01:04:28.060Z,66.74
2023-04-01T01:07:01.087Z,67.01
2023-04-01T01:09:48.834Z,67.32
2023-04-01T01:12:17.750Z,67.43
2023-04-01T01:14:44.379Z,67.61
2023-04-01T01:17:17.127Z,67.81
2023-04-01T01:19:58.395Z,67.59
2023-04-01T01:22:36.915Z,67.42
2023-04-01T01:25:23.756Z,67.41
2023-04-01T01:28:09.428Z,67.31
2023-04-01T01:30:48.803Z,66.89
2023-04-01T01:33:34.180Z,66.55
2023-04-01T01:36:00.920Z,66.03
2023-04-01T01:38:30.733Z,65.99
2023-04-01T01:41:02.946Z,65.83
2023-04-01T01:43:43.355Z,65.65
2023-04-01T01:46:20.371Z,65.08
2023-04-01T01:48:49.590Z,64.61
2023-04-01T01:51:16.161Z,64.41
2023-04-01T01:53:45.721Z,63.97
2023-04-01T01:56:15.359Z,64.04
2023-04-01T01:58:47.847Z,63.83
2023-04-01T02:01:18.434Z,62.43
2023-04-01T02:03:49.841Z,61.23
2023-04-01T02:06:17.307Z,60.52
2023-04-01T02:08:45.920Z,60.64
2023-04-01T02:11:13.814Z,60.52
2023-04-01T02:13:51.443Z,60.24
2023-04-01T02:16:22.605Z,60.75
2023-04-01T02:18:55.488Z,60.92
2023-04-01T02:21:27.399Z,61.39
2023-04-01T02:23:56.471Z,61.74
2023-04-01T02:26:26.744Z,61.93
2023-04-01T02:28:54.376Z,62.30
2023-04-01T02:31:21.103Z,62.10
2023-04-01T02:33:47.783Z,62.51
2023-04-01T02:36:15.054Z,62.79
2023-04-01T02:38:42.096Z,62.98
2023-04-01T02:41:11.230Z,63.34
2023-04-01T02:43:40.353Z,63.45
2023-04-01T02:46:07.215Z,63.59
2023-04-01T02:48:33.792Z,63.59
2023-04-01T02:51:00.390Z,63.50
2023-04-01T02:53:27.043Z,63.80
2023-04-01T02:55:56.901Z,63.66
2023-04-01T02:58:23.486Z,63.94
2023-04-01T03:00:50.517Z,64.01
2023-04-01T03:03:17.200Z,63.99
2023-04-01T03:05:43.994Z,63.92
2023-04-01T03:08:15.837Z,63.94
2023-04-01T03:10:44.875Z,63.81
2023-04-01T03:13:12.265Z,63.84
2023-04-01T03:15:38.992Z,64.25
2023-04-01T03:18:08.157Z,64.48
2023-04-01T03:20:36.865Z,64.61
2023-04-01T03:23:03.838Z,64.90
2023-04-01T03:25:32.860Z,64.98
2023-04-01T03:28:00.765Z,64.96
2023-04-01T03:30:32.230Z,65.10
2023-04-01T03:32:59.622Z,65.27
2023-04-01T03:35:26.486Z,65.42
2023-04-01T03:37:53.184Z,65.19
2023-04-01T03:40:20.328Z,65.06
2023-04-01T03:42:47.492Z,64.62
2023-04-01T03:45:15.882Z,64.43
2023-04-01T03:47:44.983Z,64.32
2023-04-01T03:50:17.008Z,63.99
2023-04-01T03:52:43.596Z,64.28
2023-04-01T03:55:13.203Z,64.36
2023-04-01T03:57:42.769Z,64.79
2023-04-01T04:00:19.729Z,64.81
2023-04-01T04:02:53.378Z,65.24
2023-04-01T04:05:26.460Z,65.31
2023-04-01T04:07:53.551Z,65.35
2023-04-01T04:10:20.362Z,65.27
2023-04-01T04:12:49.787Z,65.40
2023-04-01T04:15:16.716Z,65.81
2023-04-01T04:17:46.323Z,65.73
2023-04-01T04:20:16.149Z,65.86
2023-04-01T04:22:42.823Z,65.77
2023-04-01T04:25:14.807Z,66.06
2023-04-01T04:27:41.449Z,66.05
2023-04-01T04:30:11.372Z,65.97
2023-04-01T04:32:39.113Z,65.98
2023-04-01T04:35:08.693Z,65.87
2023-04-01T04:37:35.528Z,65.62
2023-04-01T04:40:02.153Z,65.33
2023-04-01T04:42:35.070Z,64.94
2023-04-01T04:45:07.409Z,64.57
2023-04-01T04:47:35.794Z,64.41
2023-04-01T04:50:04.635Z,64.47
2023-04-01T04:52:33.715Z,63.74
2023-04-01T04:55:02.779Z,63.38
2023-04-01T04:57:29.593Z,63.35
2023-04-01T04:59:58.648Z,63.73
2023-04-01T05:02:51.332Z,63.72
2023-04-01T05:05:18.258Z,63.50
2023-04-01T05:07:47.201Z,63.34
2023-04-01T05:10:16.675Z,62.93
2023-04-01T05:12:44.046Z,62.58
2023-04-01T05:15:17.705Z,62.43
2023-04-01T05:17:47.240Z,62.35
2023-04-01T05:20:15.020Z,62.25
2023-04-01T05:22:42.025Z,61.93
2023-04-01T05:25:11.386Z,61.70
2023-04-01T05:27:38.307Z,61.70
2023-04-01T05:30:06.297Z,61.55
2023-04-01T05:32:54.580Z,61.16
2023-04-01T05:35:24.638Z,61.18
2023-04-01T05:37:51.463Z,60.65
2023-04-01T05:40:18.828Z,60.59
2023-04-01T05:42:47.962Z,60.07
2023-04-01T05:45:16.869Z,60.11
2023-04-01T05:48:03.089Z,59.96
2023-04-01T05:50:38.729Z,59.78
2023-04-01T05:53:08.707Z,59.68
2023-04-01T05:55:39.136Z,59.17
2023-04-01T05:58:06.538Z,59.44
2023-04-01T06:00:35.585Z,58.38
2023-04-01T06:03:07.203Z,58.53
2023-04-01T06:05:42.334Z,57.86
2023-04-01T06:08:20.457Z,57.18
2023-04-01T06:11:07.045Z,57.43
2023-04-01T06:13:53.238Z,57.58
2023-04-01T06:16:35.623Z,57.70
2023-04-01T06:19:21.325Z,56.79
2023-04-01T06:21:48.752Z,56.58
2023-04-01T06:24:24.696Z,57.05
2023-04-01T06:26:54.984Z,56.56
2023-04-01T06:29:31.665Z,57.28
2023-04-01T06:32:04.788Z,55.97
2023-04-01T06:34:34.688Z,56.24
2023-04-01T06:37:01.369Z,56.35
2023-04-01T06:39:28.041Z,56.34
2023-04-01T06:42:01.085Z,56.93
2023-04-01T06:44:31.237Z,57.09
2023-04-01T06:50:22.645Z,57.21
2023-04-01T06:53:33.348Z,56.88
2023-04-01T06:56:19.435Z,56.89
2023-04-01T06:59:05.450Z,56.76
2023-04-01T07:01:41.308Z,57.10
2023-04-01T07:04:12.953Z,56.09
2023-04-01T07:06:47.539Z,55.74
2023-04-01T07:09:21.028Z,56.64
2023-04-01T07:12:16.069Z,55.39
2023-04-01T07:15:34.452Z,55.55
2023-04-01T07:18:04.691Z,55.39
2023-04-01T07:20:36.456Z,55.57
2023-04-01T07:23:05.085Z,54.55
2023-04-01T07:26:02.258Z,54.81
2023-04-01T07:28:33.310Z,55.08
2023-04-01T07:31:12.971Z,53.18
2023-04-01T07:33:45.803Z,52.00
2023-04-01T07:36:24.864Z,52.69
2023-04-01T07:39:10.507Z,52.87
2023-04-01T07:42:15.903Z,53.68
2023-04-01T07:44:45.844Z,52.79
2023-04-01T07:47:16.489Z,51.59
2023-04-01T07:49:53.485Z,52.25
2023-04-01T07:52:22.370Z,52.73
2023-04-01T07:54:58.452Z,52.62
2023-04-01T07:57:36.388Z,52.42
2023-04-01T08:00:06.305Z,51.79
2023-04-01T08:02:54.585Z,51.57
2023-04-01T08:05:21.543Z,51.90
2023-04-01T08:07:52.262Z,52.70
2023-04-01T08:10:37.457Z,51.95
2023-04-01T08:13:24.806Z,51.02
2023-04-01T08:16:35.937Z,51.64
2023-04-01T08:19:14.262Z,49.96
2023-04-01T08:21:51.123Z,49.35
2023-04-01T08:24:46.430Z,50.05
2023-04-01T08:27:17.885Z,50.04
2023-04-01T08:29:50.510Z,49.77
2023-04-01T08:32:18.150Z,49.91
2023-04-01T08:34:48.799Z,50.24
2023-04-01T08:37:33.009Z,50.13
2023-04-01T08:40:03.424Z,50.01
2023-04-01T08:42:48.638Z,49.12
2023-04-01T08:45:19.447Z,49.15
2023-04-01T08:48:09.829Z,48.23
2023-04-01T08:50:45.742Z,49.36
2023-04-01T08:53:39.311Z,49.57
2023-04-01T08:56:10.224Z,50.29
2023-04-01T08:58:55.747Z,49.88
2023-04-01T09:01:29.635Z,49.69
2023-04-01T09:03:59.539Z,50.73
2023-04-01T09:06:29.812Z,50.54
2023-04-01T09:09:05.701Z,49.14
2023-04-01T09:11:51.777Z,47.85
2023-04-01T09:14:39.602Z,48.73
2023-04-01T09:17:38.046Z,49.08
2023-04-01T09:20:23.490Z,47.66
2023-04-01T09:23:09.346Z,47.45
2023-04-01T09:25:55.072Z,48.73
2023-04-01T09:28:21.956Z,47.13
2023-04-01T09:30:48.811Z,47.04
2023-04-01T09:33:28.450Z,47.82
2023-04-01T09:35:58.551Z,48.40
2023-04-01T09:38:32.719Z,49.39
2023-04-01T09:40:59.935Z,48.80
2023-04-01T09:43:44.454Z,49.30
2023-04-01T09:46:15.296Z,50.85
2023-04-01T09:48:56.393Z,51.28
2023-04-01T09:51:22.997Z,50.40
2023-04-01T09:53:50.203Z,50.97
2023-04-01T09:56:26.137Z,49.19
2023-04-01T09:59:05.417Z,49.91
2023-04-01T10:01:43.849Z,50.48
2023-04-01T10:04:18.272Z,50.59
2023-04-01T10:06:52.483Z,50.18
2023-04-01T10:09:28.129Z,50.37
2023-04-01T10:11:54.760Z,49.27
2023-04-01T10:14:54.078Z,49.18
2023-04-01T10:17:20.782Z,48.40
2023-04-01T10:19:58.814Z,48.96
2023-04-01T10:22:43.125Z,48.72
2023-04-01T10:25:34.522Z,48.20
2023-04-01T10:28:13.571Z,48.69
2023-04-01T10:31:17.926Z,49.17
2023-04-01T10:33:57.477Z,49.77
2023-04-01T10:36:31.416Z,47.54
2023-04-01T10:39:11.589Z,47.46
2023-04-01T10:41:49.729Z,48.55
2023-04-01T10:44:35.192Z,47.48
2023-04-01T10:47:33.571Z,49.02
2023-04-01T10:50:18.989Z,47.74
2023-04-01T10:52:52.602Z,46.56
2023-04-01T10:55:52.713Z,46.39
2023-04-01T10:59:00.280Z,47.00
2023-04-01T11:01:54.927Z,44.92
2023-04-01T11:05:04.745Z,46.28
2023-04-01T11:08:09.279Z,46.36
2023-04-01T11:10:44.760Z,44.51
2023-04-01T11:13:13.894Z,43.12
2023-04-01T11:15:42.990Z,42.91
2023-04-01T11:18:21.370Z,43.75
2023-04-01T11:21:08.133Z,43.19
2023-04-01T11:23:45.460Z,41.74
2023-04-01T11:26:17.007Z,42.76
2023-04-01T11:29:06.361Z,42.63
2023-04-01T11:32:07.175Z,42.70
2023-04-01T11:34:49.355Z,43.64
2023-04-01T11:37:22.361Z,44.87
2023-04-01T11:40:26.071Z,45.28
2023-04-01T11:43:56.567Z,45.33
2023-04-01T11:46:55.088Z,45.83
2023-04-01T11:49:27.372Z,45.03
2023-04-01T11:52:18.623Z,45.68
2023-04-01T11:54:48.397Z,46.70
2023-04-01T11:57:37.334Z,46.98
2023-04-01T12:00:17.726Z,46.68
2023-04-01T12:03:05.223Z,46.96
2023-04-01T12:05:32.336Z,46.16
2023-04-01T12:08:17.006Z,45.34
2023-04-01T12:10:46.589Z,44.72
2023-04-01T12:13:31.929Z,45.36
2023-04-01T12:16:04.801Z,44.49
2023-04-01T12:18:50.748Z,43.30
2023-04-01T12:21:25.682Z,43.23
2023-04-01T12:24:27.125Z,42.93
2023-04-01T12:27:06.041Z,43.40
2023-04-01T12:29:35.732Z,44.21
2023-04-01T12:32:07.155Z,43.52
2023-04-01T12:34:41.770Z,44.38
2023-04-01T12:37:32.045Z,44.14
2023-04-01T12:40:01.798Z,43.67
2023-04-01T12:42:47.290Z,43.69
2023-04-01T12:45:33.714Z,43.31
2023-04-01T12:48:36.068Z,40.77
2023-04-01T12:51:07.857Z,39.28
2023-04-01T12:53:37.199Z,39.39
2023-04-01T12:56:04.972Z,38.60
2023-04-01T12:58:50.756Z,38.58
2023-04-01T13:01:18.071Z,37.43
2023-04-01T13:04:03.840Z,37.78
2023-04-01T13:06:34.663Z,36.53
2023-04-01T13:09:09.950Z,36.32
2023-04-01T13:11:41.975Z,34.82
2023-04-01T13:14:21.633Z,33.34
2023-04-01T13:16:58.398Z,33.62
2023-04-01T13:19:27.456Z,30.45
2023-04-01T13:22:20.139Z,30.75
2023-04-01T13:24:50.976Z,29.62
2023-04-01T13:27:23.927Z,27.89
2023-04-01T13:29:53.560Z,26.79
2023-04-01T13:32:20.927Z,25.93
2023-04-01T13:35:10.128Z,26.81
2023-04-01T13:37:52.377Z,25.88
2023-04-01T13:40:27.356Z,26.53
2023-04-01T13:43:13.804Z,26.91
2023-04-01T13:45:49.801Z,26.16
2023-04-01T13:48:34.903Z,28.54
2023-04-01T13:51:04.007Z,27.79
2023-04-01T13:53:33.696Z,30.15
2023-04-01T13:56:02.861Z,30.78
2023-04-01T13:58:33.005Z,28.73
2023-04-01T14:01:08.764Z,30.07
2023-04-01T14:03:54.235Z,31.14
2023-04-01T14:06:38.927Z,31.73
2023-04-01T14:09:05.585Z,35.13
2023-04-01T14:11:34.494Z,37.18
2023-04-01T14:14:07.246Z,38.79
2023-04-01T14:16:34.289Z,40.10
2023-04-01T14:19:21.236Z,41.45
2023-04-01T14:21:59.639Z,40.62
2023-04-01T14:24:46.956Z,37.37
2023-04-01T14:27:13.615Z,36.63
2023-04-01T14:29:40.365Z,35.38
2023-04-01T14:32:06.990Z,35.04
2023-04-01T14:34:42.684Z,32.75
2023-04-01T14:37:14.125Z,33.04
2023-04-01T14:39:56.455Z,33.08
2023-04-01T14:42:28.366Z,30.89
2023-04-01T14:45:21.408Z,30.66
2023-04-01T14:48:05.469Z,30.31
2023-04-01T14:50:41.505Z,28.85
2023-04-01T14:53:08.168Z,27.29
2023-04-01T14:55:35.140Z,26.92
2023-04-01T14:58:17.707Z,27.89
2023-04-01T15:00:49.977Z,28.32
2023-04-01T15:03:26.568Z,27.31
2023-04-01T15:05:56.505Z,27.99
2023-04-01T15:08:42.609Z,26.73
2023-04-01T15:11:27.360Z,25.55
2023-04-01T15:14:00.440Z,27.62
2023-04-01T15:16:29.701Z,28.16
2023-04-01T15:19:20.172Z,27.92
2023-04-01T15:21:52.459Z,28.43
2023-04-01T15:24:28.603Z,28.14
2023-04-01T15:27:04.217Z,28.01
2023-04-01T15:29:49.289Z,28.77
2023-04-01T15:32:21.084Z,28.82
2023-04-01T15:34:47.811Z,28.70
2023-04-01T15:37:17.419Z,30.19
2023-04-01T15:40:03.026Z,30.49
2023-04-01T15:42:44.980Z,30.94
2023-04-01T15:45:19.044Z,30.58
2023-04-01T15:47:46.991Z,31.15
2023-04-01T15:50:27.304Z,30.38
2023-04-01T15:53:31.614Z,28.84
2023-04-01T15:56:22.860Z,27.78
2023-04-01T15:59:15.781Z,28.44
2023-04-01T16:01:47.434Z,27.49
2023-04-01T16:04:25.963Z,28.44
2023-04-01T16:07:11.501Z,28.60
2023-04-01T16:09:48.540Z,29.40
2023-04-01T16:12:30.554Z,29.27
2023-04-01T16:15:19.503Z,28.95
2023-04-01T16:17:54.660Z,29.27
2023-04-01T16:20:24.353Z,27.75
2023-04-01T16:23:01.457Z,27.56
2023-04-01T16:28:41.943Z,28.17
2023-04-01T16:31:11.013Z,28.25
2023-04-01T16:33:56.619Z,27.82
2023-04-01T16:36:36.844Z,29.21
2023-04-01T16:39:11.600Z,29.34
2023-04-01T16:41:48.873Z,30.69
2023-04-01T16:44:23.574Z,29.99
2023-04-01T16:47:09.282Z,29.68
2023-04-01T16:49:51.762Z,30.17
2023-04-01T16:52:18.853Z,29.81
2023-04-01T16:54:53.966Z,30.17
2023-04-01T16:57:24.378Z,31.12
2023-04-01T17:00:03.346Z,31.38
2023-04-01T17:02:35.367Z,32.12
2023-04-01T17:05:20.119Z,32.54
2023-04-01T17:08:08.044Z,33.49
2023-04-01T17:10:38.455Z,34.01
2023-04-01T17:13:05.225Z,34.44
2023-04-01T17:15:34.933Z,34.50
2023-04-01T17:18:10.813Z,34.12
2023-04-01T17:20:41.777Z,34.55
2023-04-01T17:23:14.244Z,35.02
2023-04-01T17:25:40.999Z,35.81
2023-04-01T17:28:16.960Z,36.32
2023-04-01T17:31:02.432Z,36.05
2023-04-01T17:33:32.602Z,36.25
2023-04-01T17:35:59.324Z,36.80
2023-04-01T17:38:32.114Z,37.49
2023-04-01T17:41:05.028Z,37.72
2023-04-01T17:43:50.809Z,37.27
2023-04-01T17:46:40.912Z,37.27
2023-04-01T17:49:40.185Z,37.56
2023-04-01T17:52:25.668Z,37.91
2023-04-01T17:55:16.727Z,38.36
2023-04-01T17:57:56.427Z,39.23
2023-04-01T18:00:53.449Z,38.91
2023-04-01T18:03:24.206Z,39.11
2023-04-01T18:05:59.888Z,39.10
2023-04-01T18:08:47.301Z,39.39
2023-04-01T18:11:16.917Z,40.04
2023-04-01T18:13:56.082Z,40.56
2023-04-01T18:16:29.719Z,40.29
2023-04-01T18:19:03.463Z,40.39
2023-04-01T18:21:46.757Z,40.13
2023-04-01T18:24:16.310Z,40.95
2023-04-01T18:26:44.078Z,41.25
2023-04-01T18:29:13.184Z,42.16
2023-04-01T18:31:44.318Z,41.45
2023-04-01T18:34:18.806Z,41.97
2023-04-01T18:36:47.752Z,43.24
2023-04-01T18:39:18.762Z,42.41
2023-04-01T18:41:45.421Z,43.52
2023-04-01T18:44:12.232Z,42.32
2023-04-01T18:46:59.883Z,42.60
2023-04-01T18:49:41.832Z,42.89
2023-04-01T18:52:19.132Z,43.38
2023-04-01T18:54:55.001Z,44.60
2023-04-01T18:57:21.812Z,44.77
2023-04-01T18:59:54.385Z,44.68
2023-04-01T19:02:21.672Z,43.88
2023-04-01T19:04:53.875Z,44.19
2023-04-01T19:07:40.361Z,44.13
2023-04-01T19:10:21.584Z,44.31
2023-04-01T19:13:01.266Z,44.46
2023-04-01T19:15:48.895Z,45.22
2023-04-01T19:18:15.577Z,45.55
2023-04-01T19:20:55.036Z,45.78
2023-04-01T19:23:48.924Z,46.95
2023-04-01T19:26:22.322Z,46.93
2023-04-01T19:28:49.750Z,47.13
2023-04-01T19:31:31.793Z,46.59
2023-04-01T19:34:00.254Z,47.11
2023-04-01T19:36:32.637Z,46.39
2023-04-01T19:39:17.194Z,45.97
2023-04-01T19:41:53.031Z,45.96
2023-04-01T19:44:54.601Z,45.78
2023-04-01T19:47:40.491Z,45.42
2023-04-01T19:50:50.157Z,45.67
2023-04-01T19:53:35.654Z,45.62
2023-04-01T19:56:07.593Z,45.78
2023-04-01T19:58:49.042Z,46.44
2023-04-01T20:01:32.005Z,47.15
2023-04-01T20:04:23.751Z,46.36
2023-04-01T20:07:11.118Z,46.72
2023-04-01T20:09:51.726Z,46.69
2023-04-01T20:12:37.334Z,46.86
2023-04-01T20:15:08.488Z,47.05
2023-04-01T20:17:38.308Z,47.06
2023-04-01T20:20:09.377Z,47.05
2023-04-01T20:22:45.272Z,47.61
2023-04-01T20:25:30.660Z,47.61
2023-04-01T20:27:57.225Z,49.36
2023-04-01T20:30:47.537Z,49.70
2023-04-01T20:33:33.323Z,49.28
2023-04-01T20:36:22.511Z,48.88
2023-04-01T20:38:49.125Z,49.52
2023-04-01T20:41:25.376Z,49.91
2023-04-01T20:44:00.538Z,50.38
2023-04-01T20:46:46.907Z,50.35
2023-04-01T20:49:14.486Z,50.19
2023-04-01T20:51:47.037Z,49.92
2023-04-01T20:54:19.697Z,49.30
2023-04-01T20:57:02.147Z,49.62
2023-04-01T20:59:31.248Z,50.65
2023-04-01T21:01:57.850Z,50.72
2023-04-01T21:04:30.964Z,51.16
2023-04-01T21:07:03.015Z,51.39
2023-04-01T21:09:30.040Z,50.82
2023-04-01T21:11:57.243Z,51.69
2023-04-01T21:14:35.955Z,51.79
2023-04-01T21:17:24.442Z,51.26
2023-04-01T21:19:54.297Z,50.85
2023-04-01T21:22:21.256Z,51.23
2023-04-01T21:24:57.086Z,51.21
2023-04-01T21:27:33.085Z,51.43
2023-04-01T21:30:03.067Z,52.01
2023-04-01T21:32:39.354Z,51.84
2023-04-01T21:35:22.842Z,51.83
2023-04-01T21:37:53.170Z,51.68
2023-04-01T21:40:22.802Z,52.01
2023-04-01T21:42:51.940Z,51.86
2023-04-01T21:45:24.894Z,51.04
2023-04-01T21:48:00.827Z,51.09
2023-04-01T21:50:44.344Z,51.36
2023-04-01T21:53:34.454Z,50.99
2023-04-01T21:56:01.201Z,51.26
2023-04-01T21:58:40.273Z,51.32
2023-04-01T22:01:09.873Z,51.64
2023-04-01T22:03:48.327Z,51.20
2023-04-01T22:06:17.331Z,51.16
2023-04-01T22:08:53.179Z,51.51
2023-04-01T22:11:22.878Z,51.87
2023-04-01T22:14:18.703Z,51.79
2023-04-01T22:16:58.745Z,51.41
2023-04-01T22:19:31.609Z,51.57
2023-04-01T22:22:17.008Z,51.39
2023-04-01T22:25:02.405Z,51.17
2023-04-01T22:27:36.247Z,51.71
2023-04-01T22:30:06.610Z,52.32
2023-04-01T22:32:36.755Z,52.58
2023-04-01T22:35:06.902Z,52.15
2023-04-01T22:37:59.177Z,52.49
2023-04-01T22:40:31.807Z,53.01
2023-04-01T22:43:04.557Z,53.56
2023-04-01T22:45:32.330Z,53.29
2023-04-01T22:48:03.162Z,52.83
2023-04-01T22:50:48.401Z,52.53
2023-04-01T22:53:15.071Z,52.71
2023-04-01T22:55:53.693Z,52.58
2023-04-01T22:58:30.584Z,53.23
2023-04-01T23:00:58.118Z,53.63
2023-04-01T23:03:28.580Z,53.87
2023-04-01T23:05:56.481Z,53.74
2023-04-01T23:08:37.967Z,54.05
2023-04-01T23:11:05.984Z,53.73
2023-04-01T23:13:39.110Z,54.38
2023-04-01T23:16:05.928Z,54.27
2023-04-01T23:18:53.138Z,54.56
2023-04-01T23:21:20.944Z,54.25
2023-04-01T23:24:09.347Z,54.58
2023-04-01T23:26:51.536Z,54.94
2023-04-01T23:29:18.820Z,55.26
2023-04-01T23:31:46.254Z,55.94
2023-04-01T23:34:12.942Z,55.92
2023-04-01T23:37:02.848Z,56.60
2023-04-01T23:39:35.889Z,56.94
2023-04-01T23:42:05.644Z,56.78
2023-04-01T23:44:32.465Z,56.93
2023-04-01T23:46:59.452Z,57.13
2023-04-01T23:49:29.991Z,56.63
2023-04-01T23:52:00.941Z,56.55
2023-04-01T23:54:35.006Z,57.00
2023-04-01T23:57:04.476Z,57.11
2023-04-01T23:59:36.202Z,56.49
